Time,TemperatureF,DewpointF,PressureIn,WindDirection,WindDirectionDegrees,WindSpeedMPH,WindSpeedGustMPH,Humidity,HourlyPrecipIn,Conditions,Clouds,dailyrainin,SoftwareType,DateUTC
2013-08-06 00:00:00,55.1,53.1,29.88,ESE,102,0.0,0.0,93,0.00,,,0.14,Wunderground v.1.15,2013-08-06 06:00:00,
2013-08-06 00:10:00,55.1,53.1,29.88,ESE,102,0.0,0.0,93,0.00,,,0.14,Wunderground v.1.15,2013-08-06 06:10:00,
2013-08-06 00:15:00,55.1,53.1,29.88,ESE,102,0.0,0.0,93,0.00,,,0.14,Wunderground v.1.15,2013-08-06 06:15:00,
2013-08-06 00:25:00,55.1,53.1,29.88,ESE,102,0.0,0.0,93,0.00,,,0.14,Wunderground v.1.15,2013-08-06 06:25:00,
2013-08-06 00:35:00,55.0,53.0,29.88,ESE,102,0.0,0.0,93,0.00,,,0.14,Wunderground v.1.15,2013-08-06 06:35:00,
2013-08-06 00:45:00,54.9,52.9,29.88,ESE,102,0.0,0.0,93,0.00,,,0.14,Wunderground v.1.15,2013-08-06 06:45:00,
2013-08-06 00:55:00,54.8,52.8,29.88,ESE,102,0.0,0.0,93,0.00,,,0.14,Wunderground v.1.15,2013-08-06 06:55:00,
2013-08-06 01:00:00,54.7,52.7,29.88,ESE,102,0.0,0.0,93,0.00,,,0.00,Wunderground v.1.15,2013-08-06 07:00:00,
2013-08-06 01:10:00,54.5,52.5,29.87,ESE,102,0.0,0.0,93,0.00,,,0.00,Wunderground v.1.15,2013-08-06 07:10:00,
2013-08-06 01:15:00,54.4,52.4,29.87,ESE,102,0.0,0.0,93,0.00,,,0.00,Wunderground v.1.15,2013-08-06 07:15:00,
2013-08-06 01:25:00,54.3,52.3,29.87,ESE,102,0.0,0.0,93,0.00,,,0.00,Wunderground v.1.15,2013-08-06 07:25:00,
2013-08-06 01:35:00,54.1,52.1,29.87,ESE,102,0.0,0.0,93,0.00,,,0.00,Wunderground v.1.15,2013-08-06 07:35:00,
2013-08-06 01:45:00,53.8,51.5,29.87,ESE,102,0.0,0.0,92,0.00,,,0.00,Wunderground v.1.15,2013-08-06 07:45:00,
2013-08-06 01:55:00,53.8,51.8,29.88,ESE,102,0.0,0.0,93,0.00,,,0.00,Wunderground v.1.15,2013-08-06 07:55:00,
2013-08-06 02:05:00,53.7,51.7,29.88,ESE,102,0.0,0.0,93,0.00,,,0.00,Wunderground v.1.15,2013-08-06 08:05:00,
2013-08-06 02:15:00,53.6,51.9,29.88,ESE,102,0.0,0.0,94,0.00,,,0.00,Wunderground v.1.15,2013-08-06 08:15:00,
2013-08-06 02:25:00,53.5,51.5,29.88,ESE,102,0.0,0.0,93,0.00,,,0.00,Wunderground v.1.15,2013-08-06 08:25:00,
2013-08-06 02:35:00,53.3,51.3,29.88,ESE,102,0.0,0.0,93,0.00,,,0.00,Wunderground v.1.15,2013-08-06 08:35:00,
2013-08-06 02:40:00,53.2,51.2,29.88,ESE,102,0.0,0.0,93,0.00,,,0.00,Wunderground v.1.15,2013-08-06 08:40:00,
2013-08-06 02:50:00,53.0,51.0,29.88,ESE,102,0.0,0.0,93,0.00,,,0.00,Wunderground v.1.15,2013-08-06 08:50:00,
2013-08-06 03:00:00,52.8,50.8,29.88,ESE,102,0.0,0.0,93,0.00,,,0.00,Wunderground v.1.15,2013-08-06 09:00:00,
2013-08-06 03:10:00,52.6,50.6,29.88,ESE,102,0.0,0.0,93,0.00,,,0.00,Wunderground v.1.15,2013-08-06 09:10:00,
2013-08-06 03:15:00,52.5,50.5,29.88,ESE,102,0.0,0.0,93,0.00,,,0.00,Wunderground v.1.15,2013-08-06 09:15:00,
2013-08-06 03:25:00,52.3,50.3,29.89,ESE,102,0.0,0.0,93,0.00,,,0.00,Wunderground v.1.15,2013-08-06 09:25:00,
2013-08-06 03:35:00,52.2,50.2,29.88,ESE,102,0.0,0.0,93,0.00,,,0.00,Wunderground v.1.15,2013-08-06 09:35:00,
2013-08-06 03:45:00,52.1,50.1,29.89,ESE,102,0.0,0.0,93,0.00,,,0.00,Wunderground v.1.15,2013-08-06 09:45:00,
2013-08-06 03:55:00,51.9,49.9,29.89,ESE,102,0.0,0.0,93,0.00,,,0.00,Wunderground v.1.15,2013-08-06 09:55:00,
2013-08-06 04:05:00,51.8,49.8,29.89,ESE,102,0.0,0.0,93,0.00,,,0.00,Wunderground v.1.15,2013-08-06 10:05:00,
2013-08-06 04:10:00,51.7,49.7,29.89,ESE,102,0.0,0.0,93,0.00,,,0.00,Wunderground v.1.15,2013-08-06 10:10:00,
2013-08-06 04:15:00,51.6,49.9,29.89,ESE,102,0.0,0.0,94,0.00,,,0.00,Wunderground v.1.15,2013-08-06 10:15:00,
2013-08-06 04:25:00,51.4,49.4,29.90,ESE,102,0.0,0.0,93,0.00,,,0.00,Wunderground v.1.15,2013-08-06 10:25:00,
2013-08-06 04:35:00,51.2,49.2,29.90,ESE,102,0.0,0.0,93,0.00,,,0.00,Wunderground v.1.15,2013-08-06 10:35:00,
2013-08-06 04:45:00,51.0,49.0,29.91,ESE,102,0.0,0.0,93,0.00,,,0.00,Wunderground v.1.15,2013-08-06 10:45:00,
2013-08-06 04:55:00,50.8,48.8,29.91,ESE,102,0.0,0.0,93,0.00,,,0.00,Wunderground v.1.15,2013-08-06 10:55:00,
2013-08-06 05:00:00,50.7,48.7,29.90,ESE,102,0.0,0.0,93,0.00,,,0.00,Wunderground v.1.15,2013-08-06 11:00:00,
2013-08-06 05:10:00,50.4,48.5,29.90,ESE,102,0.0,0.0,93,0.00,,,0.00,Wunderground v.1.15,2013-08-06 11:10:00,
2013-08-06 05:15:00,50.2,48.3,29.90,ESE,102,0.0,0.0,93,0.00,,,0.00,Wunderground v.1.15,2013-08-06 11:15:00,
2013-08-06 05:20:00,50.1,48.2,29.90,ESE,102,0.0,0.0,93,0.00,,,0.00,Wunderground v.1.15,2013-08-06 11:20:00,
2013-08-06 05:30:00,50.0,48.1,29.91,ESE,102,0.0,0.0,93,0.00,,,0.00,Wunderground v.1.15,2013-08-06 11:30:00,
2013-08-06 05:40:00,50.2,48.5,29.91,ESE,102,0.0,0.0,94,0.00,,,0.00,Wunderground v.1.15,2013-08-06 11:40:00,
2013-08-06 05:50:00,50.3,48.6,29.91,ESE,102,0.0,0.0,94,0.00,,,0.00,Wunderground v.1.15,2013-08-06 11:50:00,
2013-08-06 06:00:00,50.5,49.1,29.92,ESE,102,0.0,0.0,95,0.00,,,0.00,Wunderground v.1.15,2013-08-06 12:00:00,
2013-08-06 06:10:00,50.6,48.9,29.92,ESE,102,0.0,0.0,94,0.00,,,0.00,Wunderground v.1.15,2013-08-06 12:10:00,
2013-08-06 06:15:00,50.6,48.9,29.92,ESE,102,0.0,0.0,94,0.00,,,0.00,Wunderground v.1.15,2013-08-06 12:15:00,
2013-08-06 06:25:00,50.7,49.0,29.92,ESE,102,0.0,0.0,94,0.00,,,0.00,Wunderground v.1.15,2013-08-06 12:25:00,
2013-08-06 06:35:00,50.6,48.9,29.92,ESE,102,0.0,0.0,94,0.00,,,0.00,Wunderground v.1.15,2013-08-06 12:35:00,
2013-08-06 06:45:00,50.5,48.8,29.92,ESE,102,0.0,0.0,94,0.00,,,0.00,Wunderground v.1.15,2013-08-06 12:45:00,
2013-08-06 06:50:00,50.4,48.7,29.91,ESE,102,0.0,0.0,94,0.00,,,0.00,Wunderground v.1.15,2013-08-06 12:50:00,
2013-08-06 07:00:00,50.5,48.8,29.91,ESE,102,0.0,0.0,94,0.00,,,0.01,Wunderground v.1.15,2013-08-06 13:00:00,
2013-08-06 07:10:00,50.6,48.9,29.91,ESE,102,0.0,0.0,94,0.00,,,0.01,Wunderground v.1.15,2013-08-06 13:10:00,
2013-08-06 07:15:00,50.6,48.9,29.91,ESE,102,0.0,0.0,94,0.00,,,0.01,Wunderground v.1.15,2013-08-06 13:15:00,
2013-08-06 07:25:00,50.8,49.4,29.90,ESE,102,0.0,0.0,95,0.00,,,0.01,Wunderground v.1.15,2013-08-06 13:25:00,
2013-08-06 07:35:00,51.1,49.7,29.90,ESE,102,0.0,0.0,95,0.00,,,0.01,Wunderground v.1.15,2013-08-06 13:35:00,
2013-08-06 07:45:00,51.3,49.9,29.90,ESE,102,0.0,0.0,95,0.00,,,0.01,Wunderground v.1.15,2013-08-06 13:45:00,
2013-08-06 07:55:00,51.9,50.5,29.89,ESE,102,0.0,0.0,95,0.00,,,0.01,Wunderground v.1.15,2013-08-06 13:55:00,
2013-08-06 08:05:00,52.4,51.0,29.90,ESE,102,0.0,0.0,95,0.00,,,0.01,Wunderground v.1.15,2013-08-06 14:05:00,
2013-08-06 08:15:00,53.0,51.9,29.90,ESE,102,0.0,0.0,96,0.00,,,0.01,Wunderground v.1.15,2013-08-06 14:15:00,
2013-08-06 08:25:00,53.5,52.4,29.90,ESE,102,0.0,0.0,96,0.00,,,0.01,Wunderground v.1.15,2013-08-06 14:25:00,
2013-08-06 08:35:00,53.9,52.5,29.90,ESE,102,0.0,0.0,95,0.00,,,0.01,Wunderground v.1.15,2013-08-06 14:35:00,
2013-08-06 08:45:00,54.7,53.0,29.90,ESE,102,0.0,0.0,94,0.00,,,0.01,Wunderground v.1.15,2013-08-06 14:45:00,
2013-08-06 08:50:00,54.9,52.9,29.89,ESE,102,0.0,0.0,93,0.00,,,0.01,Wunderground v.1.15,2013-08-06 14:50:00,
2013-08-06 09:00:00,55.8,54.1,29.89,ESE,102,0.0,0.0,94,0.00,,,0.01,Wunderground v.1.15,2013-08-06 15:00:00,
2013-08-06 09:10:00,56.5,54.2,29.89,ESE,102,0.0,0.0,92,0.00,,,0.01,Wunderground v.1.15,2013-08-06 15:10:00,
2013-08-06 09:15:00,56.8,54.2,29.89,ESE,102,0.0,0.0,91,0.00,,,0.01,Wunderground v.1.15,2013-08-06 15:15:00,
2013-08-06 09:25:00,57.0,53.5,29.89,ESE,102,0.0,0.0,88,0.00,,,0.01,Wunderground v.1.15,2013-08-06 15:25:00,
2013-08-06 09:35:00,57.7,53.2,29.88,ESE,102,0.0,0.0,85,0.00,,,0.01,Wunderground v.1.15,2013-08-06 15:35:00,
2013-08-06 09:45:00,59.0,54.2,29.88,ESE,102,0.0,0.0,84,0.00,,,0.01,Wunderground v.1.15,2013-08-06 15:45:00,
2013-08-06 09:55:00,60.0,54.2,29.88,ESE,102,0.0,0.0,81,0.00,,,0.01,Wunderground v.1.15,2013-08-06 15:55:00,
2013-08-06 10:05:00,60.7,52.7,29.88,ESE,102,0.0,0.0,75,0.00,,,0.01,Wunderground v.1.15,2013-08-06 16:05:00,
2013-08-06 10:15:00,62.1,54.1,29.88,ESE,102,0.0,0.0,75,0.00,,,0.01,Wunderground v.1.15,2013-08-06 16:15:00,
2013-08-06 10:20:00,63.1,53.2,29.88,ESE,102,0.0,0.0,70,0.00,,,0.01,Wunderground v.1.15,2013-08-06 16:20:00,
2013-08-06 10:30:00,64.7,51.8,29.88,ESE,102,0.0,0.0,63,0.00,,,0.01,Wunderground v.1.15,2013-08-06 16:30:00,
2013-08-06 10:40:00,66.3,50.6,29.86,ESE,102,0.0,0.0,57,0.00,,,0.01,Wunderground v.1.15,2013-08-06 16:40:00,
2013-08-06 10:50:00,68.4,53.0,29.86,ESE,102,0.0,0.0,58,0.00,,,0.01,Wunderground v.1.15,2013-08-06 16:50:00,
2013-08-06 11:00:00,69.4,51.0,29.86,ESE,102,0.0,0.0,52,0.00,,,0.01,Wunderground v.1.15,2013-08-06 17:00:00,
2013-08-06 11:10:00,69.3,52.4,29.86,ESE,102,0.0,0.0,55,0.00,,,0.01,Wunderground v.1.15,2013-08-06 17:10:00,
2013-08-06 11:15:00,69.0,52.6,29.86,South,178,0.0,0.0,56,0.00,,,0.01,Wunderground v.1.15,2013-08-06 17:15:00,
2013-08-06 11:25:00,68.6,53.7,29.86,South,177,0.0,0.0,59,0.00,,,0.01,Wunderground v.1.15,2013-08-06 17:25:00,
2013-08-06 11:35:00,68.7,53.8,29.86,SSW,196,0.0,0.0,59,0.00,,,0.01,Wunderground v.1.15,2013-08-06 17:35:00,
2013-08-06 11:45:00,69.5,52.6,29.86,East,94,0.0,0.0,55,0.00,,,0.01,Wunderground v.1.15,2013-08-06 17:45:00,
2013-08-06 11:50:00,70.1,52.7,29.86,East,94,0.0,0.0,54,0.00,,,0.01,Wunderground v.1.15,2013-08-06 17:50:00,
2013-08-06 12:00:00,70.4,52.4,29.85,East,89,0.0,0.0,53,0.00,,,0.01,Wunderground v.1.15,2013-08-06 18:00:00,
2013-08-06 12:10:00,71.2,52.7,29.85,East,97,0.0,0.0,52,0.00,,,0.01,Wunderground v.1.15,2013-08-06 18:10:00,
2013-08-06 12:15:00,72.0,53.4,29.85,East,83,0.0,0.0,52,0.00,,,0.01,Wunderground v.1.15,2013-08-06 18:15:00,
2013-08-06 12:25:00,71.9,50.0,29.86,NNE,17,0.0,0.0,46,0.00,,,0.01,Wunderground v.1.15,2013-08-06 18:25:00,
2013-08-06 12:35:00,72.1,48.4,29.85,East,83,0.0,0.0,43,0.00,,,0.01,Wunderground v.1.15,2013-08-06 18:35:00,
2013-08-06 12:45:00,73.4,50.8,29.86,ENE,65,0.0,0.0,45,0.00,,,0.01,Wunderground v.1.15,2013-08-06 18:45:00,
2013-08-06 12:55:00,71.9,48.2,29.86,SSW,198,0.0,0.0,43,0.00,,,0.01,Wunderground v.1.15,2013-08-06 18:55:00,
2013-08-06 13:05:00,71.0,49.2,29.86,East,88,0.0,0.0,46,0.00,,,0.01,Wunderground v.1.15,2013-08-06 19:05:00,
2013-08-06 13:15:00,70.4,49.2,29.86,SW,224,0.0,0.0,47,0.00,,,0.01,Wunderground v.1.15,2013-08-06 19:15:00,
2013-08-06 13:25:00,69.4,48.9,29.86,East,84,0.0,0.0,48,0.00,,,0.01,Wunderground v.1.15,2013-08-06 19:25:00,
2013-08-06 13:35:00,69.2,48.7,29.86,East,84,0.0,0.0,48,0.00,,,0.01,Wunderground v.1.15,2013-08-06 19:35:00,
2013-08-06 13:45:00,69.1,48.0,29.86,East,84,0.0,0.0,47,0.00,,,0.01,Wunderground v.1.15,2013-08-06 19:45:00,
2013-08-06 13:55:00,68.9,48.4,29.86,East,88,0.0,0.0,48,0.00,,,0.01,Wunderground v.1.15,2013-08-06 19:55:00,
2013-08-06 14:05:00,68.0,48.1,29.87,SSE,158,0.0,0.0,49,0.00,,,0.01,Wunderground v.1.15,2013-08-06 20:05:00,
2013-08-06 14:15:00,67.5,49.3,29.87,ESE,103,0.0,0.0,52,0.00,,,0.01,Wunderground v.1.15,2013-08-06 20:15:00,
2013-08-06 14:25:00,69.5,49.5,29.86,SW,215,0.0,0.0,49,0.00,,,0.01,Wunderground v.1.15,2013-08-06 20:25:00,
2013-08-06 14:30:00,69.7,48.6,29.86,SSW,206,0.0,0.0,47,0.00,,,0.01,Wunderground v.1.15,2013-08-06 20:30:00,
2013-08-06 14:40:00,69.4,48.3,29.86,SE,126,0.0,0.0,47,0.00,,,0.01,Wunderground v.1.15,2013-08-06 20:40:00,
2013-08-06 14:45:00,68.9,47.3,29.86,SE,126,0.0,0.0,46,0.00,,,0.01,Wunderground v.1.15,2013-08-06 20:45:00,
2013-08-06 14:50:00,68.3,48.4,29.86,SE,126,0.0,0.0,49,0.00,,,0.01,Wunderground v.1.15,2013-08-06 20:50:00,
2013-08-06 15:00:00,67.1,49.4,29.87,SE,126,0.0,0.0,53,0.00,,,0.01,Wunderground v.1.15,2013-08-06 21:00:00,
2013-08-06 15:10:00,66.4,52.5,29.86,SE,126,0.0,0.0,61,0.00,,,0.01,Wunderground v.1.15,2013-08-06 21:10:00,
2013-08-06 15:15:00,66.2,51.4,29.86,SE,126,0.0,0.0,59,0.00,,,0.01,Wunderground v.1.15,2013-08-06 21:15:00,
2013-08-06 15:25:00,65.7,51.0,29.86,SE,126,0.0,0.0,59,0.00,,,0.01,Wunderground v.1.15,2013-08-06 21:25:00,
2013-08-06 15:35:00,65.2,50.0,29.86,SE,126,0.0,0.0,58,0.00,,,0.01,Wunderground v.1.15,2013-08-06 21:35:00,
2013-08-06 15:40:00,65.3,49.7,29.86,SE,126,0.0,0.0,57,0.00,,,0.01,Wunderground v.1.15,2013-08-06 21:40:00,
2013-08-06 15:50:00,65.7,50.0,29.85,SE,126,0.0,0.0,57,0.00,,,0.01,Wunderground v.1.15,2013-08-06 21:50:00,
2013-08-06 16:00:00,66.4,48.7,29.85,NNW,345,0.0,0.0,53,0.00,,,0.01,Wunderground v.1.15,2013-08-06 22:00:00,
2013-08-06 16:10:00,67.9,48.6,29.85,NNW,335,0.0,0.0,50,0.00,,,0.01,Wunderground v.1.15,2013-08-06 22:10:00,
2013-08-06 16:15:00,68.4,47.4,29.85,ESE,108,0.0,0.0,47,0.00,,,0.01,Wunderground v.1.15,2013-08-06 22:15:00,
2013-08-06 16:25:00,69.0,47.9,29.84,ESE,117,0.0,0.0,47,0.00,,,0.01,Wunderground v.1.15,2013-08-06 22:25:00,
2013-08-06 16:30:00,69.4,48.3,29.84,ESE,117,0.0,0.0,47,0.00,,,0.01,Wunderground v.1.15,2013-08-06 22:30:00,
2013-08-06 16:40:00,69.7,47.4,29.83,NNE,30,0.0,0.0,45,0.00,,,0.01,Wunderground v.1.15,2013-08-06 22:40:00,
2013-08-06 16:50:00,69.9,49.3,29.84,ESE,108,0.0,0.0,48,0.00,,,0.01,Wunderground v.1.15,2013-08-06 22:50:00,
2013-08-06 17:00:00,69.7,48.0,29.83,SE,125,0.0,0.0,46,0.00,,,0.01,Wunderground v.1.15,2013-08-06 23:00:00,
2013-08-06 17:10:00,69.9,48.2,29.83,SSE,159,0.0,0.0,46,0.00,,,0.01,Wunderground v.1.15,2013-08-06 23:10:00,
2013-08-06 17:15:00,69.9,48.2,29.83,SSE,159,0.0,0.0,46,0.00,,,0.01,Wunderground v.1.15,2013-08-06 23:15:00,
2013-08-06 17:25:00,70.0,48.3,29.83,SSE,159,0.0,0.0,46,0.00,,,0.01,Wunderground v.1.15,2013-08-06 23:25:00,
2013-08-06 17:35:00,69.6,49.0,29.83,SSE,159,0.0,0.0,48,0.00,,,0.01,Wunderground v.1.15,2013-08-06 23:35:00,
2013-08-06 17:40:00,69.1,51.8,29.83,SSE,159,0.0,0.0,54,0.00,,,0.01,Wunderground v.1.15,2013-08-06 23:40:00,
2013-08-06 17:50:00,68.5,51.7,29.83,SSE,159,0.0,0.0,55,0.00,,,0.01,Wunderground v.1.15,2013-08-06 23:50:00,
2013-08-06 18:00:00,68.2,50.4,29.83,SSE,159,0.0,0.0,53,0.00,,,0.01,Wunderground v.1.15,2013-08-07 00:00:00,
2013-08-06 18:10:00,68.0,50.2,29.83,SSE,159,0.0,0.0,53,0.00,,,0.01,Wunderground v.1.15,2013-08-07 00:10:00,
2013-08-06 18:15:00,67.6,51.3,29.83,SSE,159,0.0,0.0,56,0.00,,,0.01,Wunderground v.1.15,2013-08-07 00:15:00,
2013-08-06 18:20:00,67.2,50.5,29.82,SSE,159,0.0,0.0,55,0.00,,,0.01,Wunderground v.1.15,2013-08-07 00:20:00,
2013-08-06 18:30:00,66.8,51.5,29.81,SSE,159,0.0,0.0,58,0.00,,,0.01,Wunderground v.1.15,2013-08-07 00:30:00,
2013-08-06 18:40:00,66.1,51.8,29.81,SSE,159,0.0,0.0,60,0.00,,,0.01,Wunderground v.1.15,2013-08-07 00:40:00,
2013-08-06 18:50:00,65.9,50.2,29.81,SSE,159,0.0,0.0,57,0.00,,,0.01,Wunderground v.1.15,2013-08-07 00:50:00,
2013-08-06 19:00:00,65.8,50.1,29.81,SSE,159,0.0,0.0,57,0.00,,,0.01,Wunderground v.1.15,2013-08-07 01:00:00,
2013-08-06 19:05:00,65.8,50.1,29.81,SSE,159,0.0,0.0,57,0.00,,,0.01,Wunderground v.1.15,2013-08-07 01:05:00,
2013-08-06 19:15:00,65.4,51.6,29.82,SSE,159,0.0,0.0,61,0.00,,,0.01,Wunderground v.1.15,2013-08-07 01:15:00,
2013-08-06 19:25:00,65.1,52.2,29.82,SSE,159,0.0,0.0,63,0.00,,,0.01,Wunderground v.1.15,2013-08-07 01:25:00,
2013-08-06 19:30:00,64.9,51.1,29.82,SSE,159,0.0,0.0,61,0.00,,,0.01,Wunderground v.1.15,2013-08-07 01:30:00,
2013-08-06 19:40:00,64.7,53.1,29.82,SSE,159,0.0,0.0,66,0.00,,,0.01,Wunderground v.1.15,2013-08-07 01:40:00,
2013-08-06 19:50:00,64.3,52.3,29.82,SSE,159,0.0,0.0,65,0.00,,,0.01,Wunderground v.1.15,2013-08-07 01:50:00,
2013-08-06 20:00:00,64.0,52.8,29.83,SSE,159,0.0,0.0,67,0.00,,,0.01,Wunderground v.1.15,2013-08-07 02:00:00,
2013-08-06 20:10:00,63.3,51.7,29.83,SSE,159,0.0,0.0,66,0.00,,,0.01,Wunderground v.1.15,2013-08-07 02:10:00,
2013-08-06 20:15:00,63.0,52.7,29.83,SSE,159,0.0,0.0,69,0.00,,,0.01,Wunderground v.1.15,2013-08-07 02:15:00,
2013-08-06 20:25:00,62.5,52.6,29.83,SSE,159,0.0,0.0,70,0.00,,,0.01,Wunderground v.1.15,2013-08-07 02:25:00,
2013-08-06 20:35:00,62.2,51.5,29.84,SSE,159,0.0,0.0,68,0.00,,,0.01,Wunderground v.1.15,2013-08-07 02:35:00,
2013-08-06 20:45:00,62.0,50.9,29.85,SSE,159,0.0,0.0,67,0.00,,,0.01,Wunderground v.1.15,2013-08-07 02:45:00,
2013-08-06 20:55:00,61.8,51.5,29.86,SSE,159,0.0,0.0,69,0.00,,,0.01,Wunderground v.1.15,2013-08-07 02:55:00,
2013-08-06 21:00:00,61.6,52.9,29.87,SSE,159,0.0,0.0,73,0.00,,,0.01,Wunderground v.1.15,2013-08-07 03:00:00,
2013-08-06 21:10:00,61.2,50.9,29.89,SSE,153,0.0,0.0,69,0.00,,,0.01,Wunderground v.1.15,2013-08-07 03:10:00,
2013-08-06 21:15:00,60.9,51.8,29.90,SSE,153,0.0,0.0,72,0.00,,,0.01,Wunderground v.1.15,2013-08-07 03:15:00,
2013-08-06 21:25:00,59.3,52.8,29.91,SSE,153,0.0,0.0,79,0.00,,,0.01,Wunderground v.1.15,2013-08-07 03:25:00,
2013-08-06 21:35:00,58.3,53.2,29.91,SSE,153,0.0,0.0,83,0.00,,,0.02,Wunderground v.1.15,2013-08-07 03:35:00,
2013-08-06 21:45:00,57.6,53.4,29.92,SSE,153,0.0,0.0,86,0.05,,,0.03,Wunderground v.1.15,2013-08-07 03:45:00,
2013-08-06 21:55:00,57.0,53.2,29.92,SSE,153,0.0,0.0,87,0.04,,,0.04,Wunderground v.1.15,2013-08-07 03:55:00,
2013-08-06 22:05:00,56.6,53.1,29.91,SSE,153,0.0,0.0,88,0.04,,,0.04,Wunderground v.1.15,2013-08-07 04:05:00,
2013-08-06 22:10:00,56.4,53.2,29.91,SSE,153,0.0,0.0,89,0.04,,,0.05,Wunderground v.1.15,2013-08-07 04:10:00,
2013-08-06 22:15:00,56.2,53.0,29.92,SSE,153,0.0,0.0,89,0.04,,,0.05,Wunderground v.1.15,2013-08-07 04:15:00,
2013-08-06 22:25:00,56.0,53.1,29.92,SSE,153,0.0,0.0,90,0.04,,,0.05,Wunderground v.1.15,2013-08-07 04:25:00,
2013-08-06 22:30:00,55.9,53.0,29.92,SSE,153,0.0,0.0,90,0.00,,,0.06,Wunderground v.1.15,2013-08-07 04:30:00,
2013-08-06 22:40:00,55.7,53.1,29.92,SSE,153,0.0,0.0,91,0.00,,,0.06,Wunderground v.1.15,2013-08-07 04:40:00,
2013-08-06 22:50:00,55.5,52.9,29.91,SSE,153,0.0,0.0,91,0.04,,,0.07,Wunderground v.1.15,2013-08-07 04:50:00,
2013-08-06 23:00:00,55.4,52.8,29.91,SSE,153,0.0,0.0,91,0.00,,,0.07,Wunderground v.1.15,2013-08-07 05:00:00,
2013-08-06 23:10:00,55.3,53.0,29.91,SSE,153,0.0,0.0,92,0.00,,,0.07,Wunderground v.1.15,2013-08-07 05:10:00,
2013-08-06 23:15:00,55.3,53.0,29.90,SSE,153,0.0,0.0,92,0.00,,,0.07,Wunderground v.1.15,2013-08-07 05:15:00,
2013-08-06 23:25:00,55.1,52.8,29.90,SSE,153,0.0,0.0,92,0.00,,,0.07,Wunderground v.1.15,2013-08-07 05:25:00,
2013-08-06 23:35:00,54.9,52.6,29.90,SSE,153,0.0,0.0,92,0.00,,,0.07,Wunderground v.1.15,2013-08-07 05:35:00,
2013-08-06 23:45:00,54.8,52.5,29.90,SSE,153,0.0,0.0,92,0.00,,,0.07,Wunderground v.1.15,2013-08-07 05:45:00,
2013-08-06 23:55:00,54.6,52.3,29.90,SSE,153,0.0,0.0,92,0.00,,,0.07,Wunderground v.1.15,2013-08-07 05:55:00,